TimeCDT,TemperatureF,Dew PointF,Humidity,Sea Level PressureIn,VisibilityMPH,Wind Direction,Wind SpeedMPH,Gust SpeedMPH,PrecipitationIn,Events,Conditions,WindDirDegrees,DateUTC
12:15 AM,36.5,36.1,99,30.10,10.0,Calm,Calm,-,N/A,,Clear,0,2013-09-23 05:15:00
12:35 AM,36.1,35.4,97,30.09,10.0,Calm,Calm,-,N/A,,Clear,0,2013-09-23 05:35:00
12:55 AM,36.0,35.1,97,30.10,10.0,Calm,Calm,-,N/A,,Clear,0,2013-09-23 05:55:00
1:15 AM,35.4,34.7,97,30.10,10.0,Calm,Calm,-,N/A,,Clear,0,2013-09-23 06:15:00
1:35 AM,34.9,34.0,97,30.11,10.0,Calm,Calm,-,N/A,,Clear,0,2013-09-23 06:35:00
1:55 AM,34.3,33.6,97,30.11,10.0,Calm,Calm,-,N/A,,Clear,0,2013-09-23 06:55:00
2:15 AM,34.9,34.3,98,30.10,10.0,Calm,Calm,-,N/A,,Clear,0,2013-09-23 07:15:00
2:35 AM,34.0,33.6,99,30.10,10.0,Calm,Calm,-,N/A,,Clear,0,2013-09-23 07:35:00
2:55 AM,33.8,33.1,97,30.09,10.0,Calm,Calm,-,N/A,,Clear,0,2013-09-23 07:55:00
3:15 AM,33.4,32.7,97,30.10,10.0,Calm,Calm,-,N/A,,Clear,0,2013-09-23 08:15:00
3:35 AM,33.6,33.1,98,30.10,10.0,Calm,Calm,-,N/A,,Clear,0,2013-09-23 08:35:00
3:55 AM,32.9,32.0,96,30.11,10.0,Calm,Calm,-,N/A,,Clear,0,2013-09-23 08:55:00
4:15 AM,33.1,32.5,98,30.11,10.0,Calm,Calm,-,N/A,,Clear,0,2013-09-23 09:15:00
4:35 AM,32.7,32.2,98,30.11,10.0,Calm,Calm,-,N/A,,Clear,0,2013-09-23 09:35:00
4:55 AM,32.4,32.0,99,30.11,10.0,Calm,Calm,-,N/A,,Clear,0,2013-09-23 09:55:00
5:15 AM,32.2,31.8,99,30.11,10.0,Calm,Calm,-,N/A,,Clear,0,2013-09-23 10:15:00
5:35 AM,32.5,32.2,99,30.12,10.0,Calm,Calm,-,N/A,,Clear,0,2013-09-23 10:35:00
5:55 AM,32.0,31.6,99,30.12,10.0,Calm,Calm,-,N/A,,Scattered Clouds,0,2013-09-23 10:55:00
6:15 AM,32.0,31.8,99,30.12,10.0,Calm,Calm,-,N/A,,Mostly Cloudy,0,2013-09-23 11:15:00
6:35 AM,32.5,32.0,98,30.14,10.0,Calm,Calm,-,N/A,,Scattered Clouds,0,2013-09-23 11:35:00
6:55 AM,32.9,32.2,97,30.14,10.0,Calm,Calm,-,N/A,,Scattered Clouds,0,2013-09-23 11:55:00
7:15 AM,33.8,33.1,97,30.14,10.0,Calm,Calm,-,N/A,,Scattered Clouds,0,2013-09-23 12:15:00
7:35 AM,37.4,37.0,99,30.14,10.0,Calm,Calm,-,N/A,,Mostly Cloudy,0,2013-09-23 12:35:00
7:55 AM,39.0,38.1,97,30.14,10.0,Calm,Calm,-,N/A,,Scattered Clouds,0,2013-09-23 12:55:00
8:15 AM,40.1,39.4,97,30.14,10.0,Calm,Calm,-,N/A,,Scattered Clouds,0,2013-09-23 13:15:00
8:35 AM,43.3,41.9,95,30.14,10.0,Calm,Calm,-,N/A,,Scattered Clouds,0,2013-09-23 13:35:00
8:55 AM,46.2,44.1,92,30.14,10.0,Calm,Calm,-,N/A,,Scattered Clouds,0,2013-09-23 13:55:00
9:15 AM,48.9,44.4,84,30.15,10.0,Calm,Calm,-,N/A,,Scattered Clouds,0,2013-09-23 14:15:00
9:35 AM,53.8,45.1,73,30.15,10.0,SE,6.9,-,N/A,,Scattered Clouds,140,2013-09-23 14:35:00
9:55 AM,55.2,44.8,68,30.15,10.0,SE,6.9,-,N/A,,Scattered Clouds,140,2013-09-23 14:55:00
10:15 AM,56.3,44.6,65,30.16,10.0,SE,6.9,-,N/A,,Scattered Clouds,140,2013-09-23 15:15:00
10:35 AM,55.2,44.1,66,30.16,10.0,SSE,5.8,-,N/A,,Mostly Cloudy,160,2013-09-23 15:35:00
10:55 AM,54.7,43.5,66,30.16,10.0,South,3.5,-,N/A,,Mostly Cloudy,170,2013-09-23 15:55:00
11:15 AM,56.1,44.1,64,30.16,10.0,SSW,4.6,-,N/A,,Overcast,200,2013-09-23 16:15:00
11:35 AM,57.4,44.4,62,30.16,10.0,SE,6.9,-,N/A,,Overcast,140,2013-09-23 16:35:00
11:55 AM,58.3,44.8,61,30.16,10.0,SSE,6.9,-,N/A,,Scattered Clouds,160,2013-09-23 16:55:00
12:15 PM,56.7,44.2,63,30.15,10.0,Calm,Calm,-,N/A,,Scattered Clouds,0,2013-09-23 17:15:00
12:35 PM,58.1,44.1,60,30.14,10.0,SE,9.2,-,N/A,,Scattered Clouds,130,2013-09-23 17:35:00
1:15 PM,58.1,43.5,58,30.13,10.0,ESE,4.6,-,N/A,,Clear,120,2013-09-23 18:15:00
1:35 PM,59.0,44.1,58,30.12,10.0,SSE,6.9,-,N/A,,Clear,150,2013-09-23 18:35:00
1:55 PM,59.5,44.6,58,30.11,10.0,SSE,4.6,-,N/A,,Clear,160,2013-09-23 18:55:00
2:15 PM,59.7,44.6,57,30.11,10.0,SE,5.8,-,N/A,,Clear,140,2013-09-23 19:15:00
2:35 PM,60.4,45.7,58,30.11,10.0,SSE,4.6,-,N/A,,Clear,160,2013-09-23 19:35:00
2:55 PM,60.1,45.3,58,30.10,10.0,ESE,5.8,-,N/A,,Clear,120,2013-09-23 19:55:00
3:15 PM,60.4,45.7,58,30.09,10.0,ESE,6.9,-,N/A,,Clear,120,2013-09-23 20:15:00
3:35 PM,60.4,46.4,60,30.09,10.0,ESE,6.9,-,N/A,,Clear,110,2013-09-23 20:35:00
3:55 PM,59.9,46.4,61,30.10,10.0,SE,6.9,-,N/A,,Clear,130,2013-09-23 20:55:00
4:15 PM,59.9,46.9,62,30.10,10.0,ESE,6.9,-,N/A,,Clear,110,2013-09-23 21:15:00
4:35 PM,59.9,47.5,64,30.09,10.0,ESE,6.9,-,N/A,,Clear,110,2013-09-23 21:35:00
4:55 PM,59.9,47.8,64,30.09,10.0,SE,5.8,-,N/A,,Clear,130,2013-09-23 21:55:00
5:15 PM,59.7,47.7,64,30.09,10.0,SE,9.2,-,N/A,,Clear,130,2013-09-23 22:15:00
5:35 PM,59.0,47.3,65,30.09,10.0,SSE,6.9,-,N/A,,Clear,150,2013-09-23 22:35:00
5:55 PM,57.7,46.9,67,30.09,10.0,SE,9.2,-,N/A,,Clear,140,2013-09-23 22:55:00
6:15 PM,55.9,46.6,71,30.10,10.0,SSE,5.8,-,N/A,,Clear,150,2013-09-23 23:15:00
6:35 PM,54.9,46.8,74,30.09,10.0,SE,6.9,-,N/A,,Clear,140,2013-09-23 23:35:00
6:55 PM,53.6,46.6,77,30.09,10.0,SE,5.8,-,N/A,,Clear,140,2013-09-23 23:55:00
7:15 PM,52.9,46.4,79,30.09,10.0,SSE,4.6,-,N/A,,Clear,150,2013-09-24 00:15:00
7:35 PM,52.7,46.0,78,30.10,10.0,SSE,3.5,-,N/A,,Clear,160,2013-09-24 00:35:00
7:55 PM,51.3,45.5,81,30.10,10.0,SSE,3.5,-,N/A,,Clear,160,2013-09-24 00:55:00
8:15 PM,50.2,45.0,82,30.10,10.0,Calm,Calm,-,N/A,,Clear,0,2013-09-24 01:15:00
8:35 PM,48.9,44.8,86,30.10,10.0,Calm,Calm,-,N/A,,Clear,0,2013-09-24 01:35:00
8:55 PM,45.9,43.9,93,30.09,10.0,Calm,Calm,-,N/A,,Clear,0,2013-09-24 01:55:00
9:15 PM,45.5,44.4,96,30.09,10.0,Calm,Calm,-,N/A,,Clear,0,2013-09-24 02:15:00
9:35 PM,43.7,43.2,98,30.10,10.0,Calm,Calm,-,N/A,,Clear,0,2013-09-24 02:35:00
9:55 PM,44.4,43.9,98,30.10,10.0,Calm,Calm,-,N/A,,Clear,0,2013-09-24 02:55:00
10:15 PM,44.1,43.7,99,30.09,2.0,Calm,Calm,-,N/A,,Clear,0,2013-09-24 03:15:00
10:35 PM,43.5,43.2,99,30.09,7.0,Calm,Calm,-,N/A,,Scattered Clouds,0,2013-09-24 03:35:00
10:55 PM,43.2,43.0,99,30.09,7.0,Calm,Calm,-,N/A,,Clear,0,2013-09-24 03:55:00
11:15 PM,41.7,41.5,99,30.09,0.5,Calm,Calm,-,N/A,,Unknown,0,2013-09-24 04:15:00
11:35 PM,42.1,41.9,99,30.09,10.0,Calm,Calm,-,N/A,,Clear,0,2013-09-24 04:35:00
11:55 PM,41.4,41.2,99,30.09,7.0,Calm,Calm,-,N/A,,Clear,0,2013-09-24 04:55:00